Seattle/Boeing Field, WA

7:48 AM PDT on April 24, 2017 (GMT -0700)
Boeing Field-King County International | | Change Station

Elev 16 ft 47.53 °N, 122.30 °W | Updated 55 minutes ago

Overcast
Overcast
46 °F
Feels Like 45 °F
N
4
Wind Variable Wind from East

Today
High -- | Low -- °F
--% Chance of Precip.
Yesterday
High -- | Low -- °F
Precip. -- in
Pressure 29.74 in
Visibility 10.0 miles
Clouds Few 3500 ft
Mostly Cloudy 6000 ft
Overcast 8000 ft
Windchill 45 °F
Dew Point 46 °F
Humidity 100%
Rainfall 0.02 in
Snow Depth Not available.
6:03 AM 8:11 PM
Waning Crescent, 5% visible
METAR KBFI 241353Z 10003KT 10SM FEW035 BKN060 OVC080 08/08 A2974 RMK AO2 RAE01 SLP069 P0000 T00780078
Pressure 29.74 in
Visibility 10.0 miles
Clouds Few 3500 ft
Mostly Cloudy 6000 ft
Overcast 8000 ft
Windchill 45 °F
Dew Point 46 °F
Humidity 100%
Rainfall 0.02 in
Snow Depth Not available.
6:03 AM 8:11 PM
Waning Crescent, 5% visible
METAR KBFI 241353Z 10003KT 10SM FEW035 BKN060 OVC080 08/08 A2974 RMK AO2 RAE01 SLP069 P0000 T00780078

Get Severe Weather Alerts

Thanks for signing up!

Be on the lookout for a verification email in your inbox.

You'll start receiving the daily forecast at 8 AM.

×

10-Day Weather Forecast

Almanac

Astronomy

Apr. 24, 2017 Rise Set
Actual Time
Civil Twilight
Nautical Twilight
Astronomical Twilight
Moon
Length of Visible Light
Length of Day
Tomorrow will be .
, % of the Moon is Illuminated

Today's Extremes

State Highs State Lows

Community

WunderPhotos

WunderBlog® & News

Nearby

Air Quality

  Air Quality AQ Index Pollutant
Not available.

Snow Depth

Station Depth Elevation

Earthquake Activity

City Distance Mag. Time & Date
Minimum magnitude displayed is 2.5.

Coastal Water Temperatures

Place Temperature

Stations

Nearby Weather Stations

Station Location Temp. Windchill Dew Point Humidity Wind Precip. Elev Updated Type
                   

Watches & Warnings

There are currently no watches in effect.